Aurora Center, South Dakota
Current Conditions -  °F | °C
As of 2:53 PM on Thursday 27 Nov 2014 (Local Time) from KMHE Reporting Station
Broken Clouds Broken Clouds  
Wind Chill: -1°   Ceiling: 12000
Heat Index: 15°   Visibility: 10mi
Dew Point:   Wind: 16mph
Humidity: 68%   Direction: 140°SE
Pressure: 30.24"   Gusts: NA
Location:  43.5853°N, 98.5581°W
Report Text: KMHE 272053Z AUTO 14014KT 10SM BKN120 M09/M14 A3024 RMK AO2 SLP269 T10941144 56049
Loading
Personal Weather Stations






























Interactive Weather Map New forecast layout! Learn more

10-Day Weather Forecast

Advertisements
Track Severe Weather on mobile